createdAt,value
2018-12-19T00:00:15.850Z,416.07
2018-12-19T00:01:15.823Z,415.36
2018-12-19T00:02:15.842Z,420.63
2018-12-19T00:03:15.827Z,423.67
2018-12-19T00:04:15.801Z,420.45
2018-12-19T00:05:15.798Z,421.36
2018-12-19T00:06:15.767Z,413.93
2018-12-19T00:07:15.759Z,412.94
2018-12-19T00:08:15.769Z,416.91
2018-12-19T00:09:15.749Z,422.91
2018-12-19T00:10:15.743Z,418.24
2018-12-19T00:11:15.730Z,426.87
2018-12-19T00:12:15.715Z,421.45
2018-12-19T00:13:15.716Z,414.65
2018-12-19T00:14:15.699Z,424.78
2018-12-19T00:15:15.681Z,419.97
2018-12-19T00:16:15.661Z,428.46
2018-12-19T00:17:15.671Z,415.68
2018-12-19T00:18:15.701Z,423.27
2018-12-19T00:19:15.688Z,418.43
2018-12-19T00:20:15.626Z,418.46
2018-12-19T00:21:15.626Z,428.05
2018-12-19T00:22:15.608Z,416.97
2018-12-19T00:23:15.598Z,415.03
2018-12-19T00:24:15.590Z,423.91
2018-12-19T00:25:15.586Z,425.72
2018-12-19T00:26:15.563Z,430.53
2018-12-19T00:27:15.561Z,417.36
2018-12-19T00:28:15.539Z,420.24
2018-12-19T00:29:15.535Z,425.07
2018-12-19T00:30:15.544Z,417.61
2018-12-19T00:31:15.520Z,425.48
2018-12-19T00:32:15.509Z,418.02
2018-12-19T00:33:15.486Z,421.69
2018-12-19T00:34:15.476Z,419.63
2018-12-19T00:35:15.502Z,416.02
2018-12-19T00:36:15.468Z,412.77
2018-12-19T00:37:15.436Z,426.38
2018-12-19T00:38:15.438Z,415.83
2018-12-19T00:39:16.124Z,422.25
2018-12-19T00:40:15.413Z,423.86
2018-12-19T00:41:15.435Z,425.05
2018-12-19T00:42:15.394Z,420.80
2018-12-19T00:43:15.382Z,414.60
2018-12-19T00:44:15.367Z,430.07
2018-12-19T00:45:15.361Z,427.15
2018-12-19T00:46:15.368Z,426.32
2018-12-19T00:47:15.329Z,426.08
2018-12-19T00:48:15.322Z,427.62
2018-12-19T00:49:15.311Z,418.47
2018-12-19T00:50:15.310Z,425.12
2018-12-19T00:51:15.325Z,422.29
2018-12-19T00:52:15.274Z,424.08
2018-12-19T00:53:15.275Z,417.40
2018-12-19T00:54:15.266Z,416.83
2018-12-19T00:55:15.249Z,422.55
2018-12-19T00:56:15.249Z,421.29
2018-12-19T00:57:15.247Z,421.35
2018-12-19T00:58:15.232Z,422.96
2018-12-19T00:59:15.201Z,432.88
2018-12-19T01:00:15.190Z,419.05
2018-12-19T01:01:15.193Z,425.76
2018-12-19T01:02:15.215Z,418.68
2018-12-19T01:03:15.175Z,424.74
2018-12-19T01:04:15.159Z,419.04
2018-12-19T01:05:15.135Z,424.64
2018-12-19T01:06:15.133Z,421.90
2018-12-19T01:07:15.138Z,419.80
2018-12-19T01:08:15.145Z,416.28
2018-12-19T01:09:16.014Z,421.84
2018-12-19T01:10:15.091Z,420.90
2018-12-19T01:11:15.067Z,415.79
2018-12-19T01:12:15.073Z,415.53
2018-12-19T01:13:15.095Z,421.77
2018-12-19T01:14:15.049Z,422.62
2018-12-19T01:15:15.037Z,418.20
2018-12-19T01:16:15.033Z,428.74
2018-12-19T01:17:15.012Z,414.73
2018-12-19T01:18:14.992Z,422.70
2018-12-19T01:19:15.020Z,426.08
2018-12-19T01:20:14.985Z,425.85
2018-12-19T01:21:14.973Z,418.37
2018-12-19T01:22:14.971Z,422.47
2018-12-19T01:23:14.953Z,416.89
2018-12-19T01:24:14.930Z,412.82
2018-12-19T01:25:14.950Z,420.83
2018-12-19T01:26:14.925Z,420.49
2018-12-19T01:27:14.918Z,423.20
2018-12-19T01:28:14.894Z,416.24
2018-12-19T01:29:14.882Z,417.08
2018-12-19T01:30:14.894Z,426.31
2018-12-19T01:31:14.859Z,417.14
2018-12-19T01:32:14.858Z,414.58
2018-12-19T01:33:14.855Z,423.91
2018-12-19T01:34:14.858Z,428.56
2018-12-19T01:35:14.823Z,421.15
2018-12-19T01:36:14.819Z,427.49
2018-12-19T01:37:14.791Z,425.47
2018-12-19T01:38:14.804Z,420.98
2018-12-19T01:39:14.782Z,414.59
2018-12-19T01:40:14.766Z,419.25
2018-12-19T01:41:14.755Z,414.63
2018-12-19T01:42:14.740Z,416.69
2018-12-19T01:43:14.743Z,414.80
2018-12-19T01:44:14.734Z,419.50
2018-12-19T01:45:14.712Z,437.01
2018-12-19T01:46:14.704Z,421.20
2018-12-19T01:47:14.691Z,418.00
2018-12-19T01:48:14.705Z,415.66
2018-12-19T01:49:14.684Z,419.11
2018-12-19T01:50:14.661Z,414.41
2018-12-19T01:51:14.633Z,414.75
2018-12-19T01:52:14.634Z,431.81
2018-12-19T01:53:14.629Z,414.29
2018-12-19T01:54:14.638Z,422.73
2018-12-19T01:55:14.602Z,413.14
2018-12-19T01:56:14.608Z,424.26
2018-12-19T01:57:14.592Z,415.05
2018-12-19T01:58:14.600Z,420.49
2018-12-19T01:59:14.591Z,424.93
2018-12-19T02:00:14.573Z,421.18
2018-12-19T02:01:14.543Z,421.14
2018-12-19T02:02:14.537Z,418.99
2018-12-19T02:03:14.530Z,418.65
2018-12-19T02:04:14.506Z,421.41
2018-12-19T02:05:14.526Z,416.20
2018-12-19T02:06:14.504Z,421.65
2018-12-19T02:07:14.479Z,426.59
2018-12-19T02:08:14.485Z,416.50
2018-12-19T02:09:14.448Z,426.20
2018-12-19T02:10:14.469Z,414.27
2018-12-19T02:11:14.436Z,421.38
2018-12-19T02:12:14.507Z,412.15
2018-12-19T02:13:14.419Z,414.46
2018-12-19T02:14:14.417Z,411.90
2018-12-19T02:15:14.385Z,417.80
2018-12-19T02:16:14.412Z,418.92
2018-12-19T02:17:14.375Z,415.02
2018-12-19T02:18:14.382Z,420.72
2018-12-19T02:19:14.350Z,427.37
2018-12-19T02:20:14.349Z,420.36
2018-12-19T02:21:14.341Z,422.87
2018-12-19T02:22:14.333Z,427.80
2018-12-19T02:23:14.305Z,414.06
2018-12-19T02:24:14.314Z,417.41
2018-12-19T02:25:14.293Z,423.61
2018-12-19T02:26:14.289Z,414.19
2018-12-19T02:27:14.255Z,420.09
2018-12-19T02:28:14.242Z,423.41
2018-12-19T02:29:14.246Z,413.64
2018-12-19T02:30:14.269Z,414.91
2018-12-19T02:31:14.229Z,412.27
2018-12-19T02:32:14.211Z,429.15
2018-12-19T02:33:14.195Z,426.37
2018-12-19T02:34:14.196Z,416.91
2018-12-19T02:35:14.203Z,415.27
2018-12-19T02:36:14.169Z,419.20
2018-12-19T02:37:14.158Z,412.90
2018-12-19T02:38:14.152Z,427.17
2018-12-19T02:39:14.139Z,418.61
2018-12-19T02:40:14.129Z,415.86
2018-12-19T02:41:14.143Z,423.22
2018-12-19T02:42:14.091Z,422.64
2018-12-19T02:43:14.102Z,420.59
2018-12-19T02:44:14.084Z,412.40
2018-12-19T02:45:14.061Z,421.95
2018-12-19T02:46:14.060Z,423.67
2018-12-19T02:47:14.064Z,424.52
2018-12-19T02:48:14.036Z,422.24
2018-12-19T02:49:14.022Z,417.82
2018-12-19T02:50:14.016Z,424.37
2018-12-19T02:51:14.011Z,419.58
2018-12-19T02:52:14.051Z,416.74
2018-12-19T02:53:13.973Z,414.67
2018-12-19T02:54:13.966Z,413.25
2018-12-19T02:55:13.973Z,422.03
2018-12-19T02:56:13.944Z,413.83
2018-12-19T02:57:13.955Z,416.24
2018-12-19T02:58:13.971Z,423.54
2018-12-19T02:59:13.909Z,416.89
2018-12-19T03:00:13.906Z,418.71
2018-12-19T03:01:13.907Z,430.38
2018-12-19T03:02:13.909Z,415.13
2018-12-19T03:03:13.888Z,419.62
2018-12-19T03:04:13.888Z,429.20
2018-12-19T03:05:13.861Z,419.00
2018-12-19T03:06:13.844Z,426.49
2018-12-19T03:07:13.834Z,413.70
2018-12-19T03:08:13.813Z,422.94
2018-12-19T03:09:13.868Z,413.65
2018-12-19T03:10:13.809Z,415.48
2018-12-19T03:11:13.800Z,419.99
2018-12-19T03:12:13.788Z,417.47
2018-12-19T03:13:13.779Z,424.93
2018-12-19T03:14:13.773Z,420.61
2018-12-19T03:15:13.752Z,417.58
2018-12-19T03:16:13.746Z,423.82
2018-12-19T03:17:13.720Z,416.90
2018-12-19T03:18:13.744Z,421.20
2018-12-19T03:19:13.695Z,427.45
2018-12-19T03:20:13.684Z,414.06
2018-12-19T03:21:13.689Z,424.63
2018-12-19T03:22:13.681Z,426.18
2018-12-19T03:23:13.664Z,413.93
2018-12-19T03:24:13.688Z,415.40
2018-12-19T03:25:13.652Z,415.45
2018-12-19T03:26:13.624Z,418.31
2018-12-19T03:27:13.620Z,419.62
2018-12-19T03:28:13.608Z,415.14
2018-12-19T03:29:13.616Z,420.20
2018-12-19T03:30:13.604Z,419.98
2018-12-19T03:31:13.569Z,418.82
2018-12-19T03:32:13.574Z,428.05
2018-12-19T03:33:13.552Z,417.19
2018-12-19T03:34:13.566Z,423.98
2018-12-19T03:35:13.533Z,428.88
2018-12-19T03:36:13.569Z,420.14
2018-12-19T03:37:13.502Z,418.05
2018-12-19T03:38:13.491Z,419.64
2018-12-19T03:39:13.477Z,427.49
2018-12-19T03:40:13.470Z,425.84
2018-12-19T03:41:13.465Z,420.08
2018-12-19T03:42:13.473Z,420.89
2018-12-19T03:43:13.448Z,418.63
2018-12-19T03:44:13.445Z,415.57
2018-12-19T03:45:13.414Z,425.26
2018-12-19T03:46:13.419Z,426.25
2018-12-19T03:47:13.438Z,416.52
2018-12-19T03:48:13.401Z,414.75
2018-12-19T03:49:13.395Z,427.10
2018-12-19T03:50:13.364Z,423.37
2018-12-19T03:51:13.361Z,419.69
2018-12-19T03:52:13.358Z,419.47
2018-12-19T03:53:13.333Z,421.37
2018-12-19T03:54:13.348Z,419.26
2018-12-19T03:55:13.334Z,417.51
2018-12-19T03:56:13.313Z,429.34
2018-12-19T03:57:13.290Z,418.75
2018-12-19T03:58:13.301Z,428.91
2018-12-19T03:59:13.276Z,417.02
2018-12-19T04:00:13.300Z,416.65
2018-12-19T04:01:13.254Z,423.84
2018-12-19T04:02:13.249Z,419.37
2018-12-19T04:03:13.237Z,420.12
2018-12-19T04:04:13.230Z,428.57
2018-12-19T04:05:13.218Z,428.29
2018-12-19T04:06:13.228Z,420.78
2018-12-19T04:07:13.181Z,427.57
2018-12-19T04:08:13.189Z,427.96
2018-12-19T04:09:13.170Z,424.52
2018-12-19T04:10:13.167Z,417.99
2018-12-19T04:11:13.186Z,421.45
2018-12-19T04:12:13.126Z,423.16
2018-12-19T04:13:13.126Z,423.62
2018-12-19T04:14:13.109Z,423.26
2018-12-19T04:15:13.113Z,419.32
2018-12-19T04:16:13.085Z,416.48
2018-12-19T04:17:13.092Z,422.36
2018-12-19T04:18:13.057Z,417.78
2018-12-19T04:19:13.117Z,415.38
2018-12-19T04:20:13.054Z,429.50
2018-12-19T04:21:13.049Z,434.71
2018-12-19T04:22:13.025Z,426.89
2018-12-19T04:23:13.038Z,425.79
2018-12-19T04:24:12.996Z,428.80
2018-12-19T04:25:13.012Z,424.51
2018-12-19T04:26:12.991Z,415.85
2018-12-19T04:27:12.988Z,423.78
2018-12-19T04:28:12.960Z,422.51
2018-12-19T04:29:12.962Z,423.05
2018-12-19T04:30:12.939Z,419.06
2018-12-19T04:31:12.924Z,421.02
2018-12-19T04:32:12.919Z,427.88
2018-12-19T04:33:12.922Z,415.52
2018-12-19T04:34:12.900Z,420.66
2018-12-19T04:35:12.908Z,419.93
2018-12-19T04:36:12.870Z,424.53
2018-12-19T04:37:12.890Z,413.61
2018-12-19T04:38:12.852Z,433.54
2018-12-19T04:39:12.863Z,425.94
2018-12-19T04:40:12.872Z,419.84
2018-12-19T04:41:12.810Z,424.66
2018-12-19T04:42:12.812Z,421.17
2018-12-19T04:43:12.819Z,426.07
2018-12-19T04:44:12.807Z,427.30
2018-12-19T04:45:12.805Z,419.29
2018-12-19T04:46:12.776Z,421.68
2018-12-19T04:47:12.838Z,422.09
2018-12-19T04:48:12.793Z,416.65
2018-12-19T04:49:12.726Z,421.54
2018-12-19T04:50:12.724Z,420.68
2018-12-19T04:51:12.713Z,418.32
2018-12-19T04:52:12.725Z,421.94
2018-12-19T04:53:14.552Z,422.12
2018-12-19T04:54:12.716Z,425.79
2018-12-19T04:55:12.668Z,434.83
2018-12-19T04:56:12.664Z,425.72
2018-12-19T04:57:12.650Z,426.66
2018-12-19T04:58:12.655Z,426.37
2018-12-19T04:59:12.635Z,419.80
2018-12-19T05:00:12.770Z,424.13
2018-12-19T05:01:12.595Z,424.22
2018-12-19T05:02:12.608Z,429.12
2018-12-19T05:03:12.582Z,431.44
2018-12-19T05:04:12.579Z,429.96
2018-12-19T05:05:12.598Z,423.00
2018-12-19T05:06:12.549Z,422.59
2018-12-19T05:07:12.536Z,437.12
2018-12-19T05:08:12.532Z,432.54
2018-12-19T05:09:12.530Z,431.82
2018-12-19T05:10:12.615Z,428.30
2018-12-19T05:11:12.537Z,428.14
2018-12-19T05:12:12.508Z,429.51
2018-12-19T05:13:12.470Z,430.75
2018-12-19T05:14:12.477Z,430.94
2018-12-19T05:15:12.459Z,424.23
2018-12-19T05:16:12.436Z,433.89
2018-12-19T05:17:12.469Z,428.00
2018-12-19T05:18:12.428Z,425.33
2018-12-19T05:19:12.417Z,438.95
2018-12-19T05:20:12.417Z,437.30
2018-12-19T05:21:12.393Z,428.03
2018-12-19T05:22:12.400Z,427.85
2018-12-19T05:23:12.370Z,435.53
2018-12-19T05:24:12.384Z,433.46
2018-12-19T05:25:12.355Z,433.30
2018-12-19T05:26:12.328Z,432.60
2018-12-19T05:27:12.315Z,436.52
2018-12-19T05:28:12.305Z,439.85
2018-12-19T05:29:12.308Z,436.97
2018-12-19T05:30:12.324Z,430.38
2018-12-19T05:31:12.283Z,431.67
2018-12-19T05:32:12.269Z,434.29
2018-12-19T05:33:12.264Z,431.77
2018-12-19T05:34:12.237Z,432.56
2018-12-19T05:35:12.260Z,427.83
2018-12-19T05:36:12.221Z,433.39
2018-12-19T05:37:12.224Z,434.93
2018-12-19T05:38:12.206Z,435.14
2018-12-19T05:39:12.203Z,432.98
2018-12-19T05:40:18.580Z,430.29
2018-12-19T05:41:13.184Z,433.71
2018-12-19T05:42:12.171Z,427.33
2018-12-19T05:43:12.167Z,434.54
2018-12-19T05:44:12.143Z,430.74
2018-12-19T05:45:12.128Z,434.84
2018-12-19T05:46:12.151Z,430.76
2018-12-19T05:47:12.115Z,442.68
2018-12-19T05:48:12.086Z,427.27
2018-12-19T05:49:12.103Z,434.51
2018-12-19T05:50:12.136Z,438.34
2018-12-19T05:51:12.080Z,432.58
2018-12-19T05:52:12.085Z,434.70
2018-12-19T05:53:12.028Z,427.70
2018-12-19T05:54:12.033Z,436.71
2018-12-19T05:55:12.036Z,436.57
2018-12-19T05:56:12.018Z,433.24
2018-12-19T05:57:12.020Z,438.33
2018-12-19T05:58:11.986Z,431.97
2018-12-19T05:59:11.986Z,428.73
2018-12-19T06:00:11.964Z,436.13
2018-12-19T06:01:11.957Z,435.23
2018-12-19T06:02:11.979Z,434.79
2018-12-19T06:03:11.932Z,431.30
2018-12-19T06:04:11.927Z,440.44
2018-12-19T06:05:11.904Z,431.67
2018-12-19T06:06:11.898Z,431.48
2018-12-19T06:07:11.883Z,434.73
2018-12-19T06:08:11.916Z,434.02
2018-12-19T06:09:11.891Z,438.65
2018-12-19T06:10:11.868Z,430.19
2018-12-19T06:11:11.844Z,432.83
2018-12-19T06:12:11.850Z,431.77
2018-12-19T06:13:11.828Z,436.26
2018-12-19T06:14:11.839Z,433.84
2018-12-19T06:15:11.805Z,432.05
2018-12-19T06:16:11.796Z,425.34
2018-12-19T06:17:11.771Z,426.96
2018-12-19T06:18:11.789Z,433.46
2018-12-19T06:19:11.757Z,430.64
2018-12-19T06:20:11.756Z,437.87
2018-12-19T06:21:11.741Z,433.93
2018-12-19T06:22:11.750Z,430.29
2018-12-19T06:23:11.718Z,433.07
2018-12-19T06:24:11.714Z,429.26
2018-12-19T06:25:11.721Z,439.49
2018-12-19T06:26:12.169Z,438.51
2018-12-19T06:27:11.676Z,433.69
2018-12-19T06:28:11.678Z,429.92
2018-12-19T06:29:11.641Z,431.20
2018-12-19T06:30:11.631Z,436.24
2018-12-19T06:31:11.633Z,435.71
2018-12-19T06:32:11.647Z,438.92
2018-12-19T06:33:11.641Z,437.56
2018-12-19T06:34:11.620Z,440.37
2018-12-19T06:35:11.597Z,429.15
2018-12-19T06:36:11.587Z,436.74
2018-12-19T06:37:11.567Z,430.63
2018-12-19T06:38:11.577Z,431.91
2018-12-19T06:39:11.541Z,432.96
2018-12-19T06:40:11.532Z,431.22
2018-12-19T06:41:11.519Z,437.12
2018-12-19T06:42:11.538Z,428.82
2018-12-19T06:43:11.506Z,428.82
2018-12-19T06:44:11.481Z,427.81
2018-12-19T06:45:11.482Z,437.36
2018-12-19T06:46:11.491Z,430.53
2018-12-19T06:47:11.458Z,436.87
2018-12-19T06:48:11.458Z,434.52
2018-12-19T06:49:11.438Z,439.08
2018-12-19T06:50:11.424Z,436.81
2018-12-19T06:51:11.414Z,434.01
2018-12-19T06:52:11.408Z,442.65
2018-12-19T06:53:11.396Z,434.06
2018-12-19T06:54:11.386Z,432.42
2018-12-19T06:55:11.377Z,433.54
2018-12-19T06:56:11.381Z,430.44
2018-12-19T06:57:11.374Z,435.37
2018-12-19T06:58:11.352Z,436.28
2018-12-19T06:59:11.345Z,433.65
2018-12-19T07:00:11.325Z,437.38
2018-12-19T07:01:11.295Z,425.53
2018-12-19T07:02:11.317Z,429.67
2018-12-19T07:03:11.287Z,428.48
2018-12-19T07:04:11.268Z,436.34
2018-12-19T07:05:11.277Z,434.64
2018-12-19T07:06:11.258Z,435.88
2018-12-19T07:07:11.266Z,438.75
2018-12-19T07:08:11.232Z,427.60
2018-12-19T07:09:11.218Z,438.21
2018-12-19T07:10:11.211Z,433.96
2018-12-19T07:11:11.189Z,438.04
2018-12-19T07:12:11.188Z,430.98
2018-12-19T07:13:11.202Z,438.63
2018-12-19T07:14:11.167Z,431.17
2018-12-19T07:15:11.164Z,432.92
2018-12-19T07:16:11.138Z,427.70
2018-12-19T07:17:11.140Z,437.67
2018-12-19T07:18:11.174Z,436.03
2018-12-19T07:19:11.125Z,429.87
2018-12-19T07:20:11.108Z,434.32
2018-12-19T07:21:11.081Z,433.62
2018-12-19T07:22:11.071Z,425.26
2018-12-19T07:23:11.084Z,435.06
2018-12-19T07:24:11.064Z,430.98
2018-12-19T07:25:11.066Z,431.68
2018-12-19T07:26:11.050Z,432.17
2018-12-19T07:27:11.029Z,439.68
2018-12-19T07:28:11.023Z,429.52
2018-12-19T07:29:11.016Z,434.55
2018-12-19T07:30:10.994Z,434.05
2018-12-19T07:31:10.988Z,433.57
2018-12-19T07:32:10.989Z,436.78
2018-12-19T07:33:10.962Z,437.96
2018-12-19T07:34:10.956Z,436.72
2018-12-19T07:35:10.964Z,429.79
2018-12-19T07:36:10.935Z,433.99
2018-12-19T07:37:10.928Z,433.37
2018-12-19T07:38:10.905Z,438.96
2018-12-19T07:39:10.902Z,435.94
2018-12-19T07:40:10.901Z,426.86
2018-12-19T07:41:10.903Z,436.30
2018-12-19T07:42:10.870Z,439.26
2018-12-19T07:43:10.855Z,434.33
2018-12-19T07:44:10.838Z,439.73
2018-12-19T07:45:10.840Z,438.57
2018-12-19T07:46:10.849Z,424.91
2018-12-19T07:47:10.846Z,429.10
2018-12-19T07:48:10.796Z,437.34
2018-12-19T07:49:10.800Z,432.64
2018-12-19T07:50:10.796Z,436.25
2018-12-19T07:51:10.806Z,437.28
2018-12-19T07:52:10.772Z,436.30
2018-12-19T07:53:10.790Z,430.83
2018-12-19T07:54:10.728Z,436.65
2018-12-19T07:55:10.771Z,435.10
2018-12-19T07:56:10.717Z,429.28
2018-12-19T07:57:10.716Z,430.70
2018-12-19T07:58:10.708Z,431.93
2018-12-19T07:59:10.829Z,433.30
2018-12-19T08:00:10.666Z,436.91
2018-12-19T08:01:10.671Z,432.80
2018-12-19T08:02:10.641Z,434.84
2018-12-19T08:03:10.655Z,435.36
2018-12-19T08:04:10.631Z,430.64
2018-12-19T08:05:10.635Z,435.15
2018-12-19T08:06:10.605Z,433.11
2018-12-19T08:07:10.592Z,433.93
2018-12-19T08:08:10.573Z,439.25
2018-12-19T08:09:10.591Z,435.35
2018-12-19T08:10:10.593Z,431.18
2018-12-19T08:11:10.552Z,429.60
2018-12-19T08:12:10.552Z,435.68
2018-12-19T08:13:10.566Z,431.51
2018-12-19T08:14:10.521Z,432.30
2018-12-19T08:15:10.517Z,437.74
2018-12-19T08:16:10.527Z,431.04
2018-12-19T08:17:10.489Z,434.92
2018-12-19T08:18:10.486Z,434.85
2018-12-19T08:19:10.465Z,437.55
2018-12-19T08:20:10.471Z,438.63
2018-12-19T08:21:10.455Z,438.14
2018-12-19T08:22:10.468Z,439.96
2018-12-19T08:23:10.437Z,430.54
2018-12-19T08:24:10.426Z,437.95
2018-12-19T08:25:10.401Z,436.15
2018-12-19T08:26:10.387Z,433.16
2018-12-19T08:27:10.398Z,430.55
2018-12-19T08:28:10.364Z,441.54
2018-12-19T08:29:10.357Z,439.51
2018-12-19T08:30:10.353Z,434.88
2018-12-19T08:31:10.340Z,440.74
2018-12-19T08:32:10.351Z,436.52
2018-12-19T08:33:10.326Z,432.21
2018-12-19T08:34:10.303Z,433.73
2018-12-19T08:35:10.292Z,429.97
2018-12-19T08:36:10.289Z,437.82
2018-12-19T08:37:10.271Z,437.06
2018-12-19T08:38:10.259Z,435.10
2018-12-19T08:39:10.267Z,434.93
2018-12-19T08:40:10.236Z,426.35
2018-12-19T08:41:10.247Z,436.33
2018-12-19T08:42:10.227Z,435.89
2018-12-19T08:43:10.204Z,431.74
2018-12-19T08:44:10.206Z,433.93
2018-12-19T08:45:10.198Z,428.72
2018-12-19T08:46:14.487Z,438.37
2018-12-19T08:47:10.215Z,439.40
2018-12-19T08:48:10.147Z,437.58
2018-12-19T08:49:10.139Z,433.21
2018-12-19T08:50:10.176Z,437.82
2018-12-19T08:51:10.118Z,433.96
2018-12-19T08:52:10.113Z,435.33
2018-12-19T08:53:10.121Z,433.96
2018-12-19T08:54:10.107Z,434.78
2018-12-19T08:55:10.083Z,433.34
2018-12-19T08:56:10.099Z,432.30
2018-12-19T08:57:10.055Z,433.81
2018-12-19T08:58:10.052Z,427.45
2018-12-19T08:59:10.015Z,429.67
2018-12-19T09:00:10.023Z,435.61
2018-12-19T09:01:10.053Z,436.12
2018-12-19T09:02:10.009Z,431.08
2018-12-19T09:03:09.995Z,438.67
2018-12-19T09:04:09.977Z,428.78
2018-12-19T09:05:09.956Z,434.45
2018-12-19T09:06:09.952Z,435.26
2018-12-19T09:07:09.966Z,429.67
2018-12-19T09:08:09.930Z,429.26
2018-12-19T09:09:09.993Z,428.16
2018-12-19T09:10:09.910Z,427.56
2018-12-19T09:11:09.893Z,429.79
2018-12-19T09:12:09.915Z,438.63
2018-12-19T09:13:09.895Z,427.69
2018-12-19T09:14:09.878Z,440.55
2018-12-19T09:15:09.872Z,435.74
2018-12-19T09:16:09.845Z,428.85
2018-12-19T09:17:09.868Z,432.71
2018-12-19T09:18:09.821Z,433.40
2018-12-19T09:19:09.821Z,434.16
2018-12-19T09:20:09.820Z,434.24
2018-12-19T09:21:09.808Z,436.26
2018-12-19T09:22:09.783Z,436.01
2018-12-19T09:23:09.765Z,429.88
2018-12-19T09:24:09.814Z,433.46
2018-12-19T09:25:09.760Z,432.11
2018-12-19T09:26:09.748Z,434.66
2018-12-19T09:27:09.730Z,428.48
2018-12-19T09:28:09.725Z,432.27
2018-12-19T09:29:09.703Z,430.84
2018-12-19T09:30:09.706Z,438.96
2018-12-19T09:31:09.675Z,435.65
2018-12-19T09:32:09.671Z,428.67
2018-12-19T09:33:09.675Z,432.25
2018-12-19T09:34:09.665Z,434.75
2018-12-19T09:35:09.644Z,428.21
2018-12-19T09:36:09.674Z,432.83
2018-12-19T09:37:09.616Z,430.86
2018-12-19T09:38:09.613Z,432.35
2018-12-19T09:39:09.634Z,427.07
2018-12-19T09:40:09.585Z,432.33
2018-12-19T09:41:12.409Z,438.11
2018-12-19T09:42:09.582Z,433.43
2018-12-19T09:43:09.560Z,434.56
2018-12-19T09:44:09.548Z,433.50
2018-12-19T09:45:09.552Z,433.27
2018-12-19T09:46:09.519Z,438.57
2018-12-19T09:47:09.520Z,437.36
2018-12-19T09:48:09.525Z,433.47
2018-12-19T09:49:12.497Z,437.51
2018-12-19T09:50:09.481Z,434.21
2018-12-19T09:51:09.456Z,437.23
2018-12-19T09:52:09.445Z,424.90
2018-12-19T09:53:09.443Z,434.86
2018-12-19T09:54:09.451Z,428.17
2018-12-19T09:55:09.419Z,429.71
2018-12-19T09:56:09.400Z,436.65
2018-12-19T09:57:09.408Z,434.58
2018-12-19T09:58:09.385Z,435.77
2018-12-19T09:59:09.397Z,432.45
2018-12-19T10:00:09.375Z,437.13
2018-12-19T10:01:09.361Z,436.67
2018-12-19T10:02:09.358Z,435.34
2018-12-19T10:03:09.325Z,437.42
2018-12-19T10:04:09.331Z,434.89
2018-12-19T10:05:09.321Z,436.26
2018-12-19T10:06:09.308Z,436.70
2018-12-19T10:07:09.304Z,437.23
2018-12-19T10:08:09.308Z,433.91
2018-12-19T10:09:14.794Z,436.64
2018-12-19T10:10:10.260Z,426.44
2018-12-19T10:11:09.256Z,436.97
2018-12-19T10:12:09.248Z,433.23
2018-12-19T10:13:09.274Z,436.69
2018-12-19T10:14:09.236Z,432.79
2018-12-19T10:15:09.200Z,432.51
2018-12-19T10:16:09.195Z,437.90
2018-12-19T10:17:09.189Z,430.36
2018-12-19T10:18:09.179Z,436.71
2018-12-19T10:19:09.217Z,435.09
2018-12-19T10:20:09.159Z,437.17
2018-12-19T10:21:09.156Z,435.79
2018-12-19T10:22:09.128Z,430.66
2018-12-19T10:23:09.116Z,432.26
2018-12-19T10:24:09.120Z,433.37
2018-12-19T10:25:09.132Z,440.10
2018-12-19T10:26:09.122Z,431.99
2018-12-19T10:27:09.067Z,435.84
2018-12-19T10:28:09.057Z,433.69
2018-12-19T10:29:09.060Z,435.13
2018-12-19T10:30:09.048Z,435.48
2018-12-19T10:31:09.054Z,438.24
2018-12-19T10:32:09.029Z,434.10
2018-12-19T10:33:09.000Z,438.37
2018-12-19T10:34:08.996Z,435.65
2018-12-19T10:35:09.003Z,435.87
2018-12-19T10:36:08.983Z,431.66
2018-12-19T10:37:08.970Z,430.40
2018-12-19T10:38:08.953Z,435.85
2018-12-19T10:39:08.949Z,434.84
2018-12-19T10:40:08.944Z,436.34
2018-12-19T10:41:08.955Z,431.17
2018-12-19T10:42:08.911Z,432.06
2018-12-19T10:43:08.926Z,440.42
2018-12-19T10:44:08.893Z,435.49
2018-12-19T10:45:08.876Z,436.61
2018-12-19T10:46:08.870Z,430.78
2018-12-19T10:47:08.867Z,433.37
2018-12-19T10:48:08.853Z,440.45
2018-12-19T10:49:08.844Z,431.33
2018-12-19T10:50:08.837Z,437.04
2018-12-19T10:51:08.859Z,431.56
2018-12-19T10:52:08.848Z,432.28
2018-12-19T10:53:08.793Z,434.58
2018-12-19T10:54:08.805Z,439.34
2018-12-19T10:55:08.766Z,435.38
2018-12-19T10:56:08.757Z,434.32
2018-12-19T10:57:08.752Z,433.63
2018-12-19T10:58:08.759Z,439.38
2018-12-19T10:59:08.734Z,430.43
2018-12-19T11:00:08.735Z,435.75
2018-12-19T11:01:08.706Z,435.43
2018-12-19T11:02:08.701Z,435.88
2018-12-19T11:03:08.711Z,441.00
2018-12-19T11:04:08.689Z,436.17
2018-12-19T11:05:08.660Z,437.26
2018-12-19T11:06:08.661Z,431.35
2018-12-19T11:07:08.680Z,434.52
2018-12-19T11:08:08.649Z,432.01
2018-12-19T11:09:08.630Z,435.92
2018-12-19T11:10:08.624Z,433.44
2018-12-19T11:11:08.607Z,436.82
2018-12-19T11:12:08.622Z,433.54
2018-12-19T11:13:08.578Z,436.01
2018-12-19T11:14:08.589Z,433.65
2018-12-19T11:15:08.556Z,432.62
2018-12-19T11:16:08.555Z,437.23
2018-12-19T11:17:08.533Z,437.22
2018-12-19T11:18:08.534Z,434.65
2018-12-19T11:19:08.505Z,435.11
2018-12-19T11:20:08.537Z,437.40
2018-12-19T11:21:08.490Z,428.29
2018-12-19T11:22:08.509Z,434.67
2018-12-19T11:23:08.491Z,428.20
2018-12-19T11:24:08.481Z,430.93
2018-12-19T11:25:08.498Z,436.51
2018-12-19T11:26:08.421Z,430.24
2018-12-19T11:27:08.424Z,435.16
2018-12-19T11:28:08.414Z,434.70
2018-12-19T11:29:08.424Z,435.81
2018-12-19T11:30:08.384Z,436.68
2018-12-19T11:31:08.421Z,435.53
2018-12-19T11:32:08.383Z,433.16
2018-12-19T11:33:08.380Z,432.09
2018-12-19T11:34:08.352Z,432.35
2018-12-19T11:35:08.358Z,430.88
2018-12-19T11:36:08.342Z,432.27
2018-12-19T11:37:08.332Z,430.56
2018-12-19T11:38:08.308Z,431.52
2018-12-19T11:39:08.310Z,433.42
2018-12-19T11:40:08.284Z,437.69
2018-12-19T11:41:08.290Z,431.83
2018-12-19T11:42:08.332Z,433.01
2018-12-19T11:43:08.255Z,433.95
2018-12-19T11:44:08.246Z,435.49
2018-12-19T11:45:08.241Z,432.29
2018-12-19T11:46:08.221Z,435.07
2018-12-19T11:47:08.237Z,435.48
2018-12-19T11:48:08.194Z,434.92
2018-12-19T11:49:08.179Z,434.29
2018-12-19T11:50:08.168Z,434.40
2018-12-19T11:51:08.170Z,435.57
2018-12-19T11:52:08.191Z,431.92
2018-12-19T11:53:08.141Z,436.67
2018-12-19T11:54:08.131Z,430.49
2018-12-19T11:55:08.113Z,425.20
2018-12-19T11:56:08.123Z,436.87
2018-12-19T11:57:08.093Z,438.00
2018-12-19T11:58:08.110Z,437.85
2018-12-19T11:59:08.070Z,431.02
2018-12-19T12:00:08.070Z,435.05
2018-12-19T12:01:08.069Z,429.77
2018-12-19T12:02:08.066Z,436.97
2018-12-19T12:03:08.031Z,436.93
2018-12-19T12:04:08.038Z,432.35
2018-12-19T12:05:08.022Z,436.95
2018-12-19T12:06:08.000Z,441.72
2018-12-19T12:07:08.024Z,433.24
2018-12-19T12:08:07.992Z,436.37
2018-12-19T12:09:07.972Z,435.59
2018-12-19T12:10:07.944Z,430.17
2018-12-19T12:11:07.932Z,434.65
2018-12-19T12:12:07.951Z,438.08
2018-12-19T12:13:07.924Z,435.89
2018-12-19T12:14:07.930Z,432.29
2018-12-19T12:15:07.909Z,437.66
2018-12-19T12:16:07.888Z,437.57
2018-12-19T12:17:08.830Z,437.62
2018-12-19T12:18:07.877Z,430.92
2018-12-19T12:19:07.864Z,435.36
2018-12-19T12:20:07.866Z,436.30
2018-12-19T12:21:07.833Z,434.88
2018-12-19T12:22:07.826Z,430.70
2018-12-19T12:23:07.800Z,435.74
2018-12-19T12:24:07.832Z,436.12
2018-12-19T12:25:07.798Z,432.30
2018-12-19T12:26:07.781Z,437.59
2018-12-19T12:27:07.788Z,430.49
2018-12-19T12:28:07.785Z,433.81